Blue Ridge, Canada
Current Conditions -  °F | °C
As of 10:00 PM on Monday 20 Oct 2014 (Local Time) from CYZU Reporting Station
Broken Clouds Broken Clouds  
Wind Chill: 54°   Ceiling: 22000
Heat Index: 54°   Visibility: 15mi
Dew Point: 41°   Wind: 14mph
Humidity: 62%   Direction: 310°NW
Pressure: 29.55"   Gusts: NA
Location:  54.12°N, 115.38°W
Report Text: CYZU 210400Z 31012KT 15SM FEW100 BKN220 12/05 A2955 RMK AC1CI6 LAST OBS/NEXT 211200Z SLP023 DENSITY ALT 3200FT
Loading
Personal Weather Stations






























Interactive Weather Map
Tropical Storm Tracking
New forecast layout! Learn more

10-Day Weather Forecast

Advertisements
Track Severe Weather on mobile